METAR Data
IDs: Format: Raw Decoded Include TAF

Data at: 1954 UTC 17 Nov 2019

KMYJ 171935Z AUTO 23006KT 7SM -RA SCT022 SCT028 BKN055 05/03 A2993 RMK AO2 P0002
KMYJ 171915Z AUTO 22007KT 3SM BR BKN023 BKN029 BKN037 06/03 A2993 RMK AO2
KMYJ 171855Z AUTO 25009KT 7SM CLR 06/02 A2994 RMK AO2
KMYJ 171835Z AUTO 26009KT 10SM CLR 07/01 A2994 RMK AO2
KMYJ 171815Z AUTO 23007KT 10SM CLR 07/01 A2995 RMK AO2
KMYJ 171755Z AUTO 23006KT 10SM CLR 07/01 A2995 RMK AO2
KMYJ 171735Z AUTO 21007KT 10SM CLR 07/01 A2996 RMK AO2
KMYJ 171715Z AUTO 21007KT 10SM CLR 06/01 A2997 RMK AO2
KMYJ 171655Z AUTO 20009KT 7SM CLR 06/01 A2996 RMK AO2
KMYJ 171635Z AUTO 19007KT 7SM CLR 06/01 A2997 RMK AO2
KMYJ 171615Z AUTO 19008KT 10SM CLR 05/01 A2998 RMK AO2
KMYJ 171555Z AUTO 20009KT 10SM CLR 05/00 A2998 RMK AO2
KMYJ 171535Z AUTO 20006KT 10SM CLR 05/01 A2999 RMK AO2
KMYJ 171515Z AUTO 19010KT 10SM CLR 04/00 A2999 RMK AO2
KMYJ 171455Z AUTO 19010KT 10SM CLR 03/00 A2999 RMK AO2
KMYJ 171435Z AUTO 18009KT 10SM CLR 03/00 A2999 RMK AO2
KMYJ 171415Z AUTO 18009KT 10SM CLR 03/00 A2999 RMK AO2
KMYJ 171355Z AUTO 18009KT 10SM CLR 03/00 A2999 RMK AO2
KMYJ 171335Z AUTO 18009KT 10SM CLR 02/00 A3000 RMK AO2
KMYJ 171315Z AUTO 17007KT 10SM CLR 02/00 A3000 RMK AO2
KMYJ 171255Z AUTO 18005KT 10SM CLR 02/00 A3001 RMK AO2
KMYJ 171235Z AUTO 17007KT 10SM CLR 02/00 A3001 RMK AO2
KMYJ 171215Z AUTO 17008KT 10SM CLR 01/00 A3002 RMK AO2
KMYJ 171155Z AUTO 15007KT 7SM CLR 02/00 A3002 RMK AO2
KMYJ 171135Z AUTO 17008KT 7SM CLR 01/00 A3004 RMK AO2
KMYJ 171115Z AUTO 15006KT 7SM CLR 01/00 A3004 RMK AO2
KMYJ 171055Z AUTO 16003KT 7SM CLR 01/00 A3006 RMK AO2
KMYJ 171035Z AUTO 15003KT 7SM CLR 01/00 A3006 RMK AO2
KMYJ 171015Z AUTO 15003KT 7SM CLR 01/00 A3006 RMK AO2
KMYJ 170955Z AUTO 16005KT 7SM CLR 01/00 A3006 RMK AO2
KMYJ 170935Z AUTO 16003KT 7SM CLR 01/00 A3007 RMK AO2
KMYJ 170915Z AUTO 15005KT 7SM CLR 01/00 A3007 RMK AO2
KMYJ 170855Z AUTO 15005KT 5SM BR CLR 01/00 A3008 RMK AO2
KMYJ 170835Z AUTO 14005KT 5SM BR CLR 00/00 A3009 RMK AO2
KMYJ 170815Z AUTO 15005KT 7SM CLR 00/00 A3009 RMK AO2
KMYJ 170755Z AUTO 14007KT 5SM BR CLR 00/00 A3009 RMK AO2
KMYJ 170735Z AUTO 14006KT 7SM CLR 00/00 A3010 RMK AO2
KMYJ 170715Z AUTO 14006KT 5SM BR CLR M01/M01 A3011 RMK AO2
KMYJ 170655Z AUTO 13003KT 5SM BR CLR 00/M01 A3012 RMK AO2
KMYJ 170635Z AUTO 15003KT 7SM CLR 00/M01 A3013 RMK AO2
KMYJ 170615Z AUTO 13003KT 7SM CLR M01/M01 A3012 RMK AO2
KMYJ 170555Z AUTO 00000KT 5SM BR CLR M01/M01 A3012 RMK AO2
KMYJ 170535Z AUTO 12004KT 7SM CLR 00/M01 A3012 RMK AO2
KMYJ 170515Z AUTO 11004KT 7SM CLR 00/M01 A3012 RMK AO2
KMYJ 170455Z AUTO 10004KT 5SM BR CLR 00/M01 A3013 RMK AO2
KMYJ 170435Z AUTO 10005KT 5SM BR CLR 00/M01 A3013 RMK AO2
KMYJ 170415Z AUTO 11005KT 7SM CLR 00/00 A3013 RMK AO2
KMYJ 170355Z AUTO 11004KT 7SM CLR 01/00 A3013 RMK AO2
KMYJ 170335Z AUTO 11003KT 7SM CLR 01/00 A3013 RMK AO2
KMYJ 170315Z AUTO 11003KT 7SM CLR 01/00 A3013 RMK AO2
KMYJ 170255Z AUTO 11005KT 7SM CLR 01/00 A3013 RMK AO2
KMYJ 170235Z AUTO 10005KT 7SM CLR 01/00 A3013 RMK AO2
KMYJ 170215Z AUTO 10005KT 7SM CLR 01/00 A3013 RMK AO2
KMYJ 170155Z AUTO 10006KT 10SM CLR 01/00 A3014 RMK AO2
KMYJ 170135Z AUTO 10005KT 10SM CLR 01/00 A3014 RMK AO2
KMYJ 170115Z AUTO 11004KT 7SM CLR 01/00 A3014 RMK AO2
KMYJ 170055Z AUTO 10003KT 7SM CLR 01/00 A3014 RMK AO2
KMYJ 170035Z AUTO 10004KT 7SM CLR 01/00 A3014 RMK AO2
KMYJ 170015Z AUTO 10004KT 10SM CLR 02/00 A3014 RMK AO2
KMYJ 162355Z AUTO 09006KT 10SM CLR 03/00 A3015 RMK AO2
KMYJ 162335Z AUTO 09008KT 7SM CLR 05/01 A3014 RMK AO2
KMYJ 162315Z AUTO 09008KT 10SM CLR 06/01 A3015 RMK AO2
KMYJ 162255Z AUTO 08007KT 7SM CLR 07/02 A3016 RMK AO2
KMYJ 162235Z AUTO 08008KT 10SM CLR 08/02 A3015 RMK AO2
KMYJ 162215Z AUTO 08007KT 10SM CLR 08/02 A3017 RMK AO2
KMYJ 162155Z AUTO 09008KT 7SM CLR 08/02 A3018 RMK AO2
KMYJ 162135Z AUTO 09007KT 10SM CLR 09/02 A3018 RMK AO2
KMYJ 162115Z AUTO 10007KT 10SM CLR 09/02 A3019 RMK AO2
KMYJ 162055Z AUTO 10007KT 7SM CLR 08/02 A3019 RMK AO2
KMYJ 162035Z AUTO 11004KT 10SM CLR 08/01 A3021 RMK AO2
KMYJ 162015Z AUTO 14006KT 10SM CLR 07/01 A3021 RMK AO2
KMYJ 161955Z AUTO 14005KT 10SM CLR 07/01 A3023 RMK AO2
KMYJ 161935Z AUTO 14004KT 10SM CLR 08/01 A3023 RMK AO2
KMYJ 161915Z AUTO 14005KT 10SM CLR 07/01 A3024 RMK AO2
KMYJ 161855Z AUTO 13003KT 10SM CLR 07/00 A3026 RMK AO2
KMYJ 161835Z AUTO 14003KT 7SM CLR 07/00 A3027 RMK AO2
KMYJ 161815Z AUTO 11005KT 7SM CLR 06/00 A3028 RMK AO2
KMYJ 161755Z AUTO 13006KT 7SM CLR 06/00 A3029 RMK AO2
KMYJ 161735Z AUTO 13004KT 7SM CLR 05/00 A3031 RMK AO2
KMYJ 161715Z AUTO 13005KT 7SM CLR 05/00 A3031 RMK AO2
KMYJ 161655Z AUTO 14006KT 7SM CLR 03/00 A3032 RMK AO2
KMYJ 161635Z AUTO 15008KT 7SM CLR 03/00 A3033 RMK AO2
KMYJ 161615Z AUTO 14007KT 7SM CLR 03/M01 A3033 RMK AO2
KMYJ 161555Z AUTO 13007KT 7SM CLR 02/M01 A3033 RMK AO2
KMYJ 161535Z AUTO 14006KT 4SM HZ CLR 02/M01 A3033 RMK AO2
KMYJ 161515Z AUTO 13004KT 5SM HZ CLR 01/M01 A3033 RMK AO2
KMYJ 161455Z AUTO 11004KT 5SM HZ CLR 00/M02 A3033 RMK AO2
KMYJ 161435Z AUTO 00000KT 5SM HZ CLR 00/M03 A3033 RMK AO2
KMYJ 161415Z AUTO 00000KT 5SM HZ CLR M02/M05 A3033 RMK AO2
KMYJ 161355Z AUTO 11003KT 7SM CLR M02/M05 A3033 RMK AO2
KMYJ 161335Z AUTO 10005KT 10SM CLR M03/M06 A3033 RMK AO2
KMYJ 161315Z AUTO 10005KT 10SM CLR M04/M06 A3034 RMK AO2
KMYJ 161255Z AUTO 00000KT 10SM CLR M04/M06 A3034 RMK AO2
KMYJ 161235Z AUTO 00000KT 10SM CLR M04/M06 A3033 RMK AO2
KMYJ 161215Z AUTO 10003KT 10SM CLR M03/M06 A3033 RMK AO2
KMYJ 161155Z AUTO 10004KT 10SM CLR M03/M06 A3033 RMK AO2
KMYJ 161135Z AUTO 09003KT 10SM CLR M05/M06 A3033 RMK AO2
KMYJ 161115Z AUTO 00000KT 10SM CLR M03/M06 A3033 RMK AO2
KMYJ 161055Z AUTO 00000KT 10SM CLR M05/M06 A3033 RMK AO2
KMYJ 161035Z AUTO 00000KT 7SM CLR M03/M06 A3033 RMK AO2
KMYJ 161015Z AUTO 00000KT 10SM CLR M03/M06 A3033 RMK AO2
KMYJ 160955Z AUTO 00000KT 10SM CLR M04/M06 A3032 RMK AO2
KMYJ 160935Z AUTO 00000KT 10SM CLR M04/M06 A3033 RMK AO2
KMYJ 160915Z AUTO 00000KT 7SM CLR M04/M06 A3033 RMK AO2
KMYJ 160855Z AUTO 00000KT 10SM CLR M04/M06 A3033 RMK AO2
KMYJ 160835Z AUTO 10003KT 10SM CLR M04/M06 A3033 RMK AO2
KMYJ 160815Z AUTO 00000KT 7SM CLR M04/M05 A3033 RMK AO2
KMYJ 160755Z AUTO 00000KT 10SM CLR M04/M05 A3033 RMK AO2